Terminal Aerodrome Forecast
Issued by NWS Sterling, VA

Current Version | Previous Version | Text Only | Print | Product List | Glossary On
Versions: 1 2 3 4 5 6 7 8 9 10 11 12 13 14 15 16 17 18 19
000
FTUS41 KLWX 261100 RRA
TAFMRB
TAF
KMRB 261141Z 2612/2712 36007KT 1 1/2SM -SN BR OVC005
     FM270000 03006KT 1SM -SN OVC008
     FM270900 33009KT 3SM -SN OVC015
     FM271100 33009KT P6SM OVC015=

USA.gov is the U.S. government's official web portal to all federal, state and local government web resources and services.